Gleason, Arkansas
Current Conditions -  °F | °C
As of 4:23 AM on Monday 26 Jan 2015 (Local Time) from KLRF Reporting Station
Broken Clouds Broken Clouds  
Wind Chill: 34°   Ceiling: 2900
Heat Index: 37°   Visibility: 10mi
Dew Point: 32°   Wind: 5mph
Humidity: 81%   Direction: 280°W
Pressure: 30.09"   Gusts: NA
Location:  35.0822°N, 92.366°W
Report Text: KLRF 261023Z AUTO 28004KT 10SM BKN029 03/00 A3009 RMK AO2 BKN V SCT
Loading
Personal Weather Stations






























Interactive Weather Map New forecast layout! Learn more

10-Day Weather Forecast

Advertisements
Track Severe Weather on mobile